Time;durP1;ratioP1;P1;durP2;ratioP2;P2;SDS_P1;SDS_P2;PMS_P1;PMS_P2;Temp;Humidity;BMP_temperature;BMP_pressure;BME280_temperature;BME280_humidity;BME280_pressure;Samples;Min_cycle;Max_cycle;Signal;HPM_P1;HPM_P2
2023/11/10 00:00:54;;;;;;;0.47;0.47;;;;;;;7.48;100.00;98080.16;5001415;28;20036;-86
2023/11/10 00:03:20;;;;;;;0.40;0.40;;;;;;;7.60;100.00;98085.63;5033088;28;20029;-86
2023/11/10 00:05:45;;;;;;;0.50;0.50;;;;;;;7.70;100.00;98074.41;5016637;28;20051;-87
2023/11/10 00:08:13;;;;;;;0.40;0.40;;;;;;;7.77;100.00;98071.66;5032578;28;20025;-86
2023/11/10 00:10:39;;;;;;;0.43;0.43;;;;;;;7.81;100.00;98062.97;5000751;28;20025;-84
2023/11/10 00:13:05;;;;;;;0.40;0.40;;;;;;;7.82;100.00;98061.91;5016609;28;20049;-86
2023/11/10 00:15:30;;;;;;;0.40;0.40;;;;;;;7.80;100.00;98055.97;5016168;28;20029;-86
2023/11/10 00:17:56;;;;;;;0.40;0.40;;;;;;;7.78;100.00;98055.38;4999868;28;20033;-84
2023/11/10 00:20:22;;;;;;;0.40;0.40;;;;;;;7.76;100.00;98043.28;5032483;28;20499;-86
2023/11/10 00:22:53;;;;;;;0.40;0.40;;;;;;;7.75;100.00;98037.09;5016879;28;20085;-85
2023/11/10 00:25:24;;;;;;;0.45;0.45;;;;;;;7.75;100.00;98039.75;5032812;28;20033;-85
2023/11/10 00:27:50;;;;;;;0.40;0.40;;;;;;;7.69;100.00;98029.97;5000018;28;20029;-85
2023/11/10 00:30:19;;;;;;;0.40;0.40;;;;;;;7.70;100.00;98037.78;5000002;28;20510;-85
2023/11/10 00:32:49;;;;;;;0.40;0.40;;;;;;;7.76;100.00;98033.38;5000071;28;20381;-85
2023/11/10 00:35:17;;;;;;;0.40;0.40;;;;;;;7.76;100.00;98022.69;5015955;28;20048;-85
2023/11/10 00:37:43;;;;;;;0.40;0.40;;;;;;;7.71;100.00;98015.34;5032004;28;20112;-86
2023/11/10 00:40:09;;;;;;;0.40;0.40;;;;;;;7.70;100.00;98013.72;5016162;28;20124;-85
2023/11/10 00:42:35;;;;;;;0.40;0.40;;;;;;;7.69;100.00;98012.06;5032533;28;20108;-84
2023/11/10 00:45:01;;;;;;;0.40;0.40;;;;;;;7.63;100.00;97996.09;5016249;28;20037;-84
2023/11/10 00:47:26;;;;;;;0.40;0.40;;;;;;;7.63;100.00;97988.09;5015640;28;20036;-85
2023/11/10 00:49:52;;;;;;;0.40;0.40;;;;;;;7.65;100.00;98004.72;5015670;28;20044;-85
2023/11/10 00:52:21;;;;;;;0.40;0.40;;;;;;;7.67;100.00;98006.13;5015713;28;20029;-86
2023/11/10 00:54:47;;;;;;;0.40;0.40;;;;;;;7.67;100.00;98005.28;5016086;28;20030;-85
2023/11/10 00:57:14;;;;;;;0.40;0.40;;;;;;;7.67;100.00;97994.59;5016100;28;20476;-85
2023/11/10 00:59:42;;;;;;;0.40;0.40;;;;;;;7.64;100.00;98005.75;5033545;28;20506;-85
2023/11/10 01:02:10;;;;;;;0.40;0.40;;;;;;;7.71;100.00;98007.31;4999475;28;20492;-84
2023/11/10 01:04:36;;;;;;;0.40;0.40;;;;;;;7.78;100.00;97998.38;5015786;28;20042;-86
2023/11/10 01:07:01;;;;;;;0.40;0.40;;;;;;;7.73;100.00;98031.16;5015504;28;20044;-87
2023/11/10 01:09:30;;;;;;;0.50;0.50;;;;;;;7.74;100.00;98024.75;5016152;28;20041;-87
2023/11/10 01:11:55;;;;;;;0.40;0.40;;;;;;;7.74;100.00;98038.13;4999666;28;20021;-87
2023/11/10 01:14:21;;;;;;;0.40;0.40;;;;;;;7.77;100.00;98050.25;5015835;28;20411;-86
2023/11/10 01:16:50;;;;;;;0.47;0.47;;;;;;;7.78;100.00;98066.09;5031975;28;20040;-88
2023/11/10 01:19:16;;;;;;;0.40;0.40;;;;;;;7.81;100.00;98092.38;5015859;28;20380;-87
2023/11/10 01:21:42;;;;;;;0.50;0.50;;;;;;;7.79;100.00;98102.47;4999513;28;20037;-86
2023/11/10 01:24:10;;;;;;;0.40;0.40;;;;;;;7.69;100.00;98118.22;5032087;28;20472;-86
2023/11/10 01:26:38;;;;;;;0.40;0.40;;;;;;;7.57;100.00;98139.53;4999525;28;20040;-88
2023/11/10 01:29:04;;;;;;;0.40;0.40;;;;;;;7.37;100.00;98144.25;5031776;28;20092;-87
2023/11/10 01:31:29;;;;;;;0.40;0.40;;;;;;;7.22;100.00;98158.78;5033217;28;20479;-87
2023/11/10 01:33:55;;;;;;;0.50;0.50;;;;;;;7.14;100.00;98177.72;5015434;28;20112;-87
2023/11/10 01:36:20;;;;;;;0.40;0.40;;;;;;;7.13;100.00;98185.97;5015654;28;20141;-86
2023/11/10 01:38:46;;;;;;;0.50;0.50;;;;;;;7.17;100.00;98204.03;4999199;28;20034;-87
2023/11/10 01:41:15;;;;;;;0.50;0.50;;;;;;;7.14;100.00;98200.97;5031871;28;20116;-87
2023/11/10 01:43:41;;;;;;;0.40;0.40;;;;;;;7.12;100.00;98224.41;5015734;28;20037;-86
2023/11/10 01:46:29;;;;;;;0.40;0.40;;;;;;;7.08;100.00;98229.38;5031801;28;20106;-87
2023/11/10 01:48:58;;;;;;;0.40;0.40;;;;;;;6.95;100.00;98240.13;4984259;28;20092;-87
2023/11/10 01:51:24;;;;;;;0.47;0.47;;;;;;;6.89;100.00;98257.03;5031865;28;20029;-87
2023/11/10 01:53:49;;;;;;;0.50;0.50;;;;;;;6.83;100.00;98272.06;5015426;28;20040;-86
2023/11/10 01:56:19;;;;;;;0.40;0.40;;;;;;;6.79;100.00;98279.66;5031624;28;20032;-88
2023/11/10 01:58:44;;;;;;;0.40;0.40;;;;;;;6.76;100.00;98288.09;5015434;28;20040;-88
2023/11/10 02:01:13;;;;;;;0.45;0.45;;;;;;;6.64;100.00;98288.97;5016045;28;20071;-86
2023/11/10 02:03:42;;;;;;;0.40;0.40;;;;;;;6.54;100.00;98306.25;4986540;28;20063;-86
2023/11/10 02:06:11;;;;;;;0.40;0.40;;;;;;;6.51;100.00;98314.69;5002950;28;20071;-86
2023/11/10 02:08:39;;;;;;;0.40;0.40;;;;;;;6.51;100.00;98329.84;5034962;28;20030;-85
2023/11/10 02:11:05;;;;;;;0.50;0.50;;;;;;;6.50;100.00;98347.75;5019234;28;20037;-86
2023/11/10 02:13:30;;;;;;;0.40;0.40;;;;;;;6.56;100.00;98362.94;5019563;28;20037;-86
2023/11/10 02:15:56;;;;;;;0.45;0.45;;;;;;;6.56;100.00;98362.94;5019509;28;20187;-85
2023/11/10 02:18:21;;;;;;;0.45;0.45;;;;;;;6.56;100.00;98365.63;5002689;28;20120;-87
2023/11/10 02:20:47;;;;;;;0.50;0.50;;;;;;;6.55;100.00;98376.50;5034723;28;20479;-85
2023/11/10 02:23:13;;;;;;;0.50;0.50;;;;;;;6.51;100.00;98381.44;5034908;28;20033;-86
2023/11/10 02:25:40;;;;;;;0.32;0.32;;;;;;;6.62;100.00;98401.34;4985851;28;20082;-86
2023/11/10 02:28:08;;;;;;;0.40;0.40;;;;;;;6.58;100.00;98408.91;5034644;28;20030;-85
2023/11/10 02:30:36;;;;;;;0.40;0.40;;;;;;;6.58;100.00;98416.94;5017903;28;20037;-84
2023/11/10 02:33:01;;;;;;;0.40;0.40;;;;;;;6.68;100.00;98421.03;5035181;28;20036;-86
2023/11/10 02:35:29;;;;;;;0.40;0.40;;;;;;;6.78;100.00;98424.09;5034828;28;20435;-86
2023/11/10 02:37:55;;;;;;;0.43;0.43;;;;;;;6.83;100.00;98441.16;5051547;28;20045;-85
2023/11/10 02:40:23;;;;;;;0.40;0.40;;;;;;;6.89;100.00;98452.03;5034553;28;20041;-86
2023/11/10 02:42:49;;;;;;;0.50;0.50;;;;;;;6.89;100.00;98452.84;5002203;28;20073;-85
2023/11/10 02:45:15;;;;;;;0.93;0.52;;;;;;;7.02;100.00;98473.38;5018302;28;20480;-85
2023/11/10 02:47:40;;;;;;;2.33;0.90;;;;;;;7.14;100.00;98490.38;5002000;28;20037;-85
2023/11/10 02:50:06;;;;;;;1.42;0.75;;;;;;;7.11;100.00;98484.66;5018080;28;20431;-85
2023/11/10 02:52:31;;;;;;;5.22;1.27;;;;;;;7.17;100.00;98521.22;5001842;28;20039;-88
2023/11/10 02:54:58;;;;;;;1.15;0.90;;;;;;;7.05;100.00;98523.72;5002003;28;20041;-88
2023/11/10 02:57:23;;;;;;;1.92;0.93;;;;;;;6.84;100.00;98540.78;5018318;28;20040;-87
2023/11/10 02:59:49;;;;;;;1.52;0.73;;;;;;;6.55;100.00;98552.69;5001828;28;20033;-87
2023/11/10 03:02:18;;;;;;;0.50;0.50;;;;;;;6.38;100.00;98566.44;5018283;28;20483;-90
2023/11/10 03:04:45;;;;;;;2.75;0.88;;;;;;;6.35;100.00;98590.03;5034143;28;20469;-89
2023/11/10 03:07:20;;;;;;;1.35;0.88;;;;;;;6.27;100.00;98574.19;5034635;28;20091;-89
2023/11/10 03:09:48;;;;;;;0.77;0.77;;;;;;;6.34;100.00;98609.75;5001646;28;20041;-89
2023/11/10 03:12:16;;;;;;;0.70;0.70;;;;;;;6.39;100.00;98632.13;5001277;28;20072;-89
2023/11/10 03:14:42;;;;;;;3.40;0.77;;;;;;;6.43;100.00;98637.91;5000555;28;20044;-89
2023/11/10 03:17:08;;;;;;;2.38;0.80;;;;;;;6.40;100.00;98640.97;5001631;28;20418;-87
2023/11/10 03:19:36;;;;;;;1.98;1.10;;;;;;;6.36;100.00;98647.75;5033588;28;20021;-89
2023/11/10 03:22:02;;;;;;;0.90;0.70;;;;;;;6.32;100.00;98660.66;5034153;28;20143;-88
2023/11/10 03:24:28;;;;;;;0.57;0.57;;;;;;;6.29;100.00;98660.22;5017564;28;20119;-87
2023/11/10 03:26:54;;;;;;;1.27;1.10;;;;;;;6.35;100.00;98660.28;5017633;28;20464;-89
2023/11/10 03:29:21;;;;;;;1.13;0.80;;;;;;;6.51;100.00;98668.91;5017336;28;20041;-88
2023/11/10 03:31:47;;;;;;;1.95;1.20;;;;;;;6.60;100.00;98697.09;5017695;28;20091;-89
2023/11/10 03:34:17;;;;;;;0.85;0.80;;;;;;;6.63;100.00;98698.56;5017162;28;20029;-89
2023/11/10 03:36:49;;;;;;;2.28;1.20;;;;;;;6.60;100.00;98710.47;5017892;28;20120;-89
2023/11/10 03:39:18;;;;;;;0.73;0.52;;;;;;;6.62;100.00;98720.94;5033708;28;20049;-90
2023/11/10 03:41:44;;;;;;;3.47;1.00;;;;;;;6.66;100.00;98732.88;5001422;28;20501;-89
2023/11/10 03:44:09;;;;;;;0.95;0.77;;;;;;;6.62;100.00;98743.13;5017280;28;20034;-89
2023/11/10 03:46:35;;;;;;;2.03;1.20;;;;;;;6.58;100.00;98765.91;5033655;28;20383;-89
2023/11/10 03:49:00;;;;;;;2.08;0.85;;;;;;;6.56;100.00;98762.59;5033494;28;20033;-89
2023/11/10 03:51:28;;;;;;;1.10;0.93;;;;;;;6.46;100.00;98765.66;5034135;28;20029;-89
2023/11/10 03:53:54;;;;;;;0.40;0.40;;;;;;;6.39;100.00;98786.16;5032997;28;20476;-89
2023/11/10 03:56:22;;;;;;;3.00;0.70;;;;;;;6.40;100.00;98795.78;5033453;28;20025;-87
2023/11/10 03:58:49;;;;;;;0.90;0.70;;;;;;;6.41;100.00;98810.00;5016657;28;20026;-89
2023/11/10 04:01:20;;;;;;;2.35;0.80;;;;;;;6.30;100.00;98822.84;5032987;28;20057;-89
2023/11/10 04:03:49;;;;;;;1.05;0.70;;;;;;;6.11;100.00;98797.69;5001561;28;20037;-88
2023/11/10 04:06:18;;;;;;;1.95;0.60;;;;;;;6.23;100.00;98816.66;5034167;28;20025;-89
2023/11/10 04:08:44;;;;;;;1.20;0.85;;;;;;;6.19;100.00;98847.41;4999684;28;20080;-89
2023/11/10 04:11:09;;;;;;;2.75;1.05;;;;;;;6.19;100.00;98847.41;5000398;28;20044;-89
2023/11/10 04:13:35;;;;;;;4.05;1.20;;;;;;;6.13;100.00;98856.19;5016210;28;20033;-89
2023/11/10 04:16:01;;;;;;;0.80;0.60;;;;;;;6.15;100.00;98879.00;5016342;28;20055;-89
2023/11/10 04:18:29;;;;;;;0.82;0.70;;;;;;;6.09;100.00;98871.78;5016155;28;20056;-89
2023/11/10 04:20:57;;;;;;;0.68;0.68;;;;;;;5.95;100.00;98894.00;5000365;28;20040;-89
2023/11/10 04:23:23;;;;;;;0.70;0.70;;;;;;;5.98;100.00;98906.97;5016488;28;20108;-88
2023/11/10 04:25:53;;;;;;;3.03;0.65;;;;;;;5.91;100.00;98914.06;5016874;28;20496;-90
2023/11/10 04:28:21;;;;;;;0.65;0.65;;;;;;;5.92;100.00;98924.53;5010113;28;20025;-88
2023/11/10 04:30:47;;;;;;;1.42;0.70;;;;;;;5.88;100.00;98928.59;5006753;28;20543;-89
2023/11/10 04:33:15;;;;;;;0.50;0.50;;;;;;;5.97;100.00;98940.00;5033311;28;20109;-89
2023/11/10 04:35:41;;;;;;;1.17;1.00;;;;;;;5.96;100.00;98950.88;5016266;28;20041;-89
2023/11/10 04:38:09;;;;;;;3.42;1.02;;;;;;;5.94;100.00;98961.72;5016562;28;20534;-89
2023/11/10 04:40:35;;;;;;;0.40;0.40;;;;;;;5.89;100.00;98977.44;5016699;28;20048;-89
2023/11/10 04:43:01;;;;;;;0.57;0.50;;;;;;;5.73;100.00;98976.66;5032302;28;20058;-88
2023/11/10 04:45:29;;;;;;;0.50;0.50;;;;;;;5.72;100.00;98993.66;5032670;28;20034;-88
2023/11/10 04:47:57;;;;;;;0.90;0.88;;;;;;;5.71;100.00;98996.50;5032456;28;20087;-89
2023/11/10 04:50:27;;;;;;;0.60;0.60;;;;;;;5.66;100.00;99006.91;5000795;28;20072;-88
2023/11/10 04:52:53;;;;;;;0.47;0.47;;;;;;;5.69;100.00;99015.38;4999519;28;20034;-87
2023/11/10 04:55:19;;;;;;;0.40;0.40;;;;;;;5.77;100.00;99026.94;5032476;28;20029;-89
2023/11/10 04:57:45;;;;;;;0.80;0.50;;;;;;;5.70;100.00;99035.69;5015615;28;20083;-89
2023/11/10 05:00:14;;;;;;;2.17;0.75;;;;;;;5.70;100.00;99041.03;5015870;28;20033;-89
2023/11/10 05:02:46;;;;;;;0.50;0.50;;;;;;;5.78;100.00;99050.75;5033609;28;20037;-88
2023/11/10 05:05:19;;;;;;;0.60;0.60;;;;;;;5.71;100.00;99058.66;5016314;28;20030;-88
2023/11/10 05:07:47;;;;;;;0.55;0.55;;;;;;;5.65;100.00;99061.25;5032056;28;20033;-88
2023/11/10 05:10:13;;;;;;;0.60;0.60;;;;;;;5.59;100.00;99070.84;5032264;28;20379;-89
2023/11/10 05:12:42;;;;;;;1.02;0.77;;;;;;;5.60;100.00;99082.31;5016337;28;20044;-89
2023/11/10 05:15:10;;;;;;;0.52;0.52;;;;;;;5.54;100.00;99099.88;5033399;28;20026;-90
2023/11/10 05:17:39;;;;;;;0.50;0.50;;;;;;;5.48;100.00;99106.78;5032443;28;20030;-88
2023/11/10 05:20:07;;;;;;;0.60;0.60;;;;;;;5.42;100.00;99107.50;5015248;28;20084;-89
2023/11/10 05:22:40;;;;;;;0.55;0.52;;;;;;;5.37;100.00;99109.06;5016712;28;20124;-88
2023/11/10 05:25:25;;;;;;;0.63;0.60;;;;;;;5.44;100.00;99115.31;5017230;28;20126;-88
2023/11/10 05:27:54;;;;;;;0.47;0.47;;;;;;;5.49;100.00;99127.09;5015486;28;20155;-88
2023/11/10 05:30:24;;;;;;;3.72;0.75;;;;;;;5.41;100.00;99131.69;5032334;28;20156;-88
2023/11/10 05:32:49;;;;;;;1.27;0.60;;;;;;;5.40;100.00;99138.00;5032175;28;20158;-88
2023/11/10 05:35:18;;;;;;;0.98;0.55;;;;;;;5.29;100.00;99144.63;5032193;28;20061;-88
2023/11/10 05:37:46;;;;;;;2.30;0.50;;;;;;;5.04;100.00;99136.84;5033872;28;20167;-87
2023/11/10 05:40:14;;;;;;;1.65;0.85;;;;;;;5.12;100.00;99159.13;5035359;28;20538;-89
2023/11/10 05:42:40;;;;;;;0.60;0.60;;;;;;;5.13;100.00;99153.59;5035801;28;20504;-89
2023/11/10 05:45:09;;;;;;;1.23;0.70;;;;;;;5.38;100.00;99185.38;5019511;28;20476;-88
2023/11/10 05:47:36;;;;;;;1.20;1.20;;;;;;;5.67;100.00;99180.06;5019643;28;20036;-89
2023/11/10 05:50:06;;;;;;;3.20;0.63;;;;;;;5.77;100.00;99185.13;5035855;28;20025;-88
2023/11/10 05:52:32;;;;;;;2.10;0.60;;;;;;;5.61;100.00;99186.13;5035163;28;20029;-87
2023/11/10 05:54:58;;;;;;;0.73;0.60;;;;;;;5.41;100.00;99196.47;5019258;28;20468;-85
2023/11/10 05:57:25;;;;;;;0.57;0.57;;;;;;;5.22;100.00;99205.00;5019431;28;20030;-88
2023/11/10 05:59:56;;;;;;;2.40;0.57;;;;;;;5.11;100.00;99214.25;5035107;28;20037;-88
2023/11/10 06:02:22;;;;;;;1.98;0.80;;;;;;;5.05;100.00;99228.25;5019977;28;20033;-89
2023/11/10 06:04:48;;;;;;;1.45;0.60;;;;;;;4.89;100.00;99233.69;5035287;28;20021;-88
2023/11/10 06:07:14;;;;;;;0.47;0.47;;;;;;;4.83;100.00;99238.72;5002888;28;20439;-89
2023/11/10 06:09:39;;;;;;;1.95;0.65;;;;;;;5.14;100.00;99247.69;5035093;28;20102;-88
2023/11/10 06:12:07;;;;;;;2.53;0.80;;;;;;;5.39;100.00;99254.47;5036301;28;20025;-89
2023/11/10 06:14:33;;;;;;;1.15;0.60;;;;;;;5.61;100.00;99255.47;5019037;28;20486;-88
2023/11/10 06:16:59;;;;;;;0.60;0.60;;;;;;;5.80;100.00;99267.44;5035289;28;20034;-90
2023/11/10 06:19:29;;;;;;;1.35;0.45;;;;;;;5.90;100.00;99265.34;5034406;28;20033;-88
2023/11/10 06:22:03;;;;;;;3.88;0.70;;;;;;;5.95;100.00;99267.47;5018148;28;20037;-89
2023/11/10 06:24:28;;;;;;;;;;;;;;;5.93;100.00;99269.50;5002786;28;20041;-89
2023/11/10 06:26:54;;;;;;;0.40;0.40;;;;;;;5.87;100.00;99280.88;5051795;28;19962;-89
2023/11/10 06:29:22;;;;;;;0.47;0.47;;;;;;;5.77;100.00;99285.63;5018367;28;20038;-88
2023/11/10 06:31:48;;;;;;;0.60;0.60;;;;;;;5.78;100.00;99284.66;5034870;28;20029;-89
2023/11/10 06:34:17;;;;;;;2.55;0.85;;;;;;;5.81;100.00;99298.44;5034893;28;20037;-89
2023/11/10 06:36:42;;;;;;;0.40;0.40;;;;;;;5.73;100.00;99311.84;5018183;28;20448;-87
2023/11/10 06:39:08;;;;;;;4.30;0.70;;;;;;;5.67;100.00;99317.91;5003130;28;20090;-89
2023/11/10 06:41:36;;;;;;;2.00;0.70;;;;;;;5.69;100.00;99318.56;5023504;28;20365;-88
2023/11/10 06:44:06;;;;;;;2.42;0.80;;;;;;;5.70;100.00;99314.88;5020983;28;20506;-88
2023/11/10 06:46:32;;;;;;;0.50;0.50;;;;;;;5.78;100.00;99327.31;5034693;28;20036;-86
2023/11/10 06:48:58;;;;;;;1.25;0.60;;;;;;;5.78;100.00;99327.31;5016707;28;20025;-88
2023/11/10 06:51:23;;;;;;;0.82;0.70;;;;;;;5.61;100.00;99334.59;5017280;28;20025;-88
2023/11/10 06:53:49;;;;;;;2.50;0.75;;;;;;;5.28;100.00;99341.00;5001810;28;20071;-88
2023/11/10 06:56:15;;;;;;;1.42;0.80;;;;;;;5.15;100.00;99347.91;5034273;28;20025;-88
2023/11/10 06:58:41;;;;;;;4.57;0.90;;;;;;;5.04;100.00;99351.81;5001872;28;20080;-89
2023/11/10 07:01:11;;;;;;;4.05;0.82;;;;;;;4.91;100.00;99359.53;5017984;28;20030;-88
2023/11/10 07:03:37;;;;;;;0.85;0.70;;;;;;;4.93;100.00;99366.34;5001695;28;20116;-88
2023/11/10 07:06:04;;;;;;;4.35;0.63;;;;;;;5.03;100.00;99360.81;5034235;28;20483;-87
2023/11/10 07:08:31;;;;;;;1.63;0.70;;;;;;;5.05;100.00;99372.97;5034114;28;20022;-88
2023/11/10 07:11:00;;;;;;;0.63;0.60;;;;;;;5.09;100.00;99373.44;5001663;28;20026;-88
2023/11/10 07:13:27;;;;;;;1.42;0.63;;;;;;;5.03;100.00;99379.47;5002450;28;20034;-87
2023/11/10 07:15:57;;;;;;;0.65;0.60;;;;;;;4.94;100.00;99375.16;4985586;28;20391;-90
2023/11/10 07:18:26;;;;;;;1.33;0.70;;;;;;;4.98;100.00;99374.66;5002709;28;20042;-88
2023/11/10 07:20:54;;;;;;;1.30;0.60;;;;;;;4.84;100.00;99372.69;5034120;28;20030;-88
2023/11/10 07:23:24;;;;;;;2.05;0.55;;;;;;;4.78;100.00;99368.06;5017720;28;20033;-88
2023/11/10 07:25:53;;;;;;;2.28;0.60;;;;;;;4.70;100.00;99373.44;5017676;28;20040;-87
2023/11/10 07:28:19;;;;;;;2.40;0.70;;;;;;;4.55;100.00;99398.13;5017284;28;20029;-88
2023/11/10 07:30:47;;;;;;;1.95;0.80;;;;;;;4.34;100.00;99398.66;5033277;28;20033;-87
2023/11/10 07:33:18;;;;;;;0.73;0.70;;;;;;;4.30;100.00;99407.13;5001385;28;20103;-87
2023/11/10 07:35:44;;;;;;;1.20;0.73;;;;;;;4.27;100.00;99412.78;5001194;28;20045;-87
2023/11/10 07:38:11;;;;;;;5.53;0.98;;;;;;;4.21;100.00;99421.44;5017127;28;20090;-87
2023/11/10 07:40:37;;;;;;;4.00;0.63;;;;;;;4.20;100.00;99420.59;5033395;28;20025;-87
2023/11/10 07:43:04;;;;;;;2.17;0.80;;;;;;;4.16;100.00;99427.28;5033896;28;20033;-90
2023/11/10 07:45:35;;;;;;;0.70;0.63;;;;;;;4.21;100.00;99427.59;5033949;28;20124;-88
2023/11/10 07:48:06;;;;;;;1.23;0.95;;;;;;;4.27;100.00;99426.09;5016439;28;20456;-87
2023/11/10 07:50:32;;;;;;;1.98;0.93;;;;;;;4.41;100.00;99442.19;5001385;28;20021;-88
2023/11/10 07:53:00;;;;;;;2.60;0.70;;;;;;;4.44;100.00;99449.03;5000541;28;20017;-88
2023/11/10 07:55:27;;;;;;;0.50;0.50;;;;;;;4.59;100.00;99457.16;5000761;28;20123;-88
2023/11/10 07:57:53;;;;;;;0.50;0.50;;;;;;;4.69;100.00;99463.13;5000762;28;20040;-83
2023/11/10 08:00:19;;;;;;;1.20;0.70;;;;;;;4.75;100.00;99470.44;5016257;28;20029;-87
2023/11/10 08:02:49;;;;;;;2.92;0.93;;;;;;;4.58;100.00;99466.97;5032766;28;20154;-88
2023/11/10 08:05:15;;;;;;;4.45;1.30;;;;;;;4.57;100.00;99480.44;5001087;28;20083;-89
2023/11/10 08:07:41;;;;;;;1.58;0.93;;;;;;;4.53;100.00;99490.63;5000672;28;20140;-88
2023/11/10 08:10:07;;;;;;;4.25;0.80;;;;;;;4.38;100.00;99487.78;5033086;28;20383;-87
2023/11/10 08:12:35;;;;;;;5.22;1.10;;;;;;;4.26;100.00;99486.47;5016535;28;20036;-88
2023/11/10 08:15:00;;;;;;;3.10;1.00;;;;;;;4.13;100.00;99494.13;5033247;28;20037;-88
2023/11/10 08:17:29;;;;;;;1.80;0.88;;;;;;;4.07;100.00;99502.75;5034254;28;20033;-88
2023/11/10 08:19:55;;;;;;;6.63;1.90;;;;;;;4.01;100.00;99517.53;5032722;28;20112;-88
2023/11/10 08:22:20;;;;;;;5.53;1.40;;;;;;;4.14;100.00;99519.72;5032718;28;20502;-89
2023/11/10 08:24:49;;;;;;;6.53;1.35;;;;;;;4.20;100.00;99524.38;5032816;28;20472;-88
2023/11/10 08:27:14;;;;;;;4.13;1.35;;;;;;;4.24;100.00;99525.72;4999484;28;20435;-87
2023/11/10 08:29:42;;;;;;;4.20;1.30;;;;;;;4.24;100.00;99532.88;5000099;28;20037;-87
2023/11/10 08:32:08;;;;;;;5.40;1.25;;;;;;;4.30;100.00;99540.19;5032161;28;20037;-89
2023/11/10 08:34:33;;;;;;;3.47;1.42;;;;;;;4.42;100.00;99544.19;5016586;28;20037;-89
2023/11/10 08:36:59;;;;;;;8.77;2.13;;;;;;;4.39;100.00;99533.84;5033649;28;20514;-89
2023/11/10 08:39:24;;;;;;;11.15;2.47;;;;;;;4.41;100.00;99546.00;5015943;28;20038;-88
2023/11/10 08:41:53;;;;;;;5.32;1.48;;;;;;;4.54;100.00;99548.16;5032423;28;20099;-89
2023/11/10 08:44:20;;;;;;;10.07;2.67;;;;;;;4.49;100.00;99547.00;5032677;28;20428;-87
2023/11/10 08:46:50;;;;;;;6.20;3.45;;;;;;;4.44;100.00;99558.13;5016230;28;20048;-89
2023/11/10 08:49:19;;;;;;;6.47;2.92;;;;;;;4.31;100.00;99565.78;5000281;28;20057;-88
2023/11/10 08:51:47;;;;;;;3.17;1.80;;;;;;;4.28;100.00;99566.94;5000134;28;20030;-88
2023/11/10 08:54:13;;;;;;;4.38;1.50;;;;;;;4.39;100.00;99566.66;5034111;28;20029;-87
2023/11/10 08:56:38;;;;;;;7.55;1.42;;;;;;;4.39;100.00;99585.28;5016550;28;20047;-89
2023/11/10 08:59:05;;;;;;;2.45;1.30;;;;;;;4.43;100.00;99575.13;4999417;28;20026;-88
2023/11/10 09:01:33;;;;;;;6.55;1.20;;;;;;;4.61;100.00;99582.97;5007553;28;20072;-88
2023/11/10 09:04:01;;;;;;;3.03;1.20;;;;;;;4.77;100.00;99588.28;5040073;28;20029;-88
2023/11/10 09:06:26;;;;;;;4.03;1.58;;;;;;;4.96;100.00;99595.09;5032244;28;20044;-90
2023/11/10 09:08:53;;;;;;;4.28;1.50;;;;;;;5.27;100.00;99610.38;5016146;28;20589;-89
2023/11/10 09:11:18;;;;;;;12.63;4.80;;;;;;;5.82;100.00;99622.03;5032908;28;20071;-90
2023/11/10 09:13:47;;;;;;;14.25;4.55;;;;;;;6.20;100.00;99612.38;5036646;28;20029;-88
2023/11/10 09:16:12;;;;;;;19.23;8.27;;;;;;;5.86;100.00;99618.00;5036805;28;20033;-88
2023/11/10 09:18:38;;;;;;;17.38;7.32;;;;;;;5.67;100.00;99627.25;5003278;28;20086;-88
2023/11/10 09:21:07;;;;;;;20.48;7.38;;;;;;;6.18;100.00;99633.06;5003518;28;20048;-88
2023/11/10 09:23:36;;;;;;;9.38;5.55;;;;;;;7.04;100.00;99637.31;5020638;28;20037;-89
2023/11/10 09:26:03;;;;;;;6.40;3.92;;;;;;;7.74;100.00;99635.28;5002919;28;20045;-88
2023/11/10 09:28:31;;;;;;;11.00;4.20;;;;;;;8.00;100.00;99636.66;5035171;28;20052;-86
2023/11/10 09:30:56;;;;;;;10.55;4.30;;;;;;;8.01;100.00;99639.13;5035576;28;20473;-87
2023/11/10 09:33:23;;;;;;;5.43;2.72;;;;;;;8.41;100.00;99649.50;5035952;28;20156;-87
2023/11/10 09:35:53;;;;;;;7.97;2.55;;;;;;;8.77;100.00;99655.66;5035882;28;20041;-89
2023/11/10 09:38:19;;;;;;;4.00;1.20;;;;;;;9.16;100.00;99654.38;5035710;28;20444;-88
2023/11/10 09:40:46;;;;;;;5.88;1.23;;;;;;;9.40;100.00;99665.72;5019256;28;20105;-88
2023/11/10 09:43:13;;;;;;;3.33;1.67;;;;;;;9.83;100.00;99662.91;5019298;28;20035;-88
2023/11/10 09:45:38;;;;;;;3.35;1.27;;;;;;;10.20;100.00;99669.69;5003318;28;20030;-89
2023/11/10 09:48:08;;;;;;;6.32;1.25;;;;;;;10.50;100.00;99682.84;5002890;28;20067;-89
2023/11/10 09:50:36;;;;;;;3.33;0.93;;;;;;;10.81;100.00;99690.41;5036021;28;20030;-89
2023/11/10 09:53:05;;;;;;;5.95;1.20;;;;;;;10.97;100.00;99690.00;5002841;28;20488;-89
2023/11/10 09:55:34;;;;;;;9.55;1.30;;;;;;;11.14;100.00;99695.00;5019639;28;20061;-89
2023/11/10 09:58:05;;;;;;;6.03;1.60;;;;;;;11.32;100.00;99702.47;5019632;28;20064;-88
2023/11/10 10:00:33;;;;;;;3.38;1.10;;;;;;;11.45;100.00;99711.34;5003309;28;20484;-88
2023/11/10 10:03:01;;;;;;;4.78;1.23;;;;;;;11.50;100.00;99704.53;5003034;28;20029;-89
2023/11/10 10:05:30;;;;;;;3.67;1.15;;;;;;;11.56;100.00;99723.38;5019595;28;20033;-89
2023/11/10 10:07:56;;;;;;;7.07;1.50;;;;;;;11.79;100.00;99717.56;5018999;28;20036;-89
2023/11/10 10:10:22;;;;;;;6.38;1.67;;;;;;;12.21;100.00;99731.59;5019307;28;20037;-90
2023/11/10 10:12:48;;;;;;;5.30;1.50;;;;;;;11.86;100.00;99731.88;5035302;28;20547;-88
2023/11/10 10:15:25;;;;;;;13.27;2.40;;;;;;;11.76;100.00;99742.22;5068425;28;20113;-88
2023/11/10 10:17:53;;;;;;;6.93;1.30;;;;;;;12.13;100.00;99731.00;5035501;28;20038;-89
2023/11/10 10:20:22;;;;;;;8.85;1.42;;;;;;;12.36;100.00;99733.19;5036568;28;20095;-90
2023/11/10 10:22:48;;;;;;;5.97;2.00;;;;;;;12.09;100.00;99730.59;5036198;28;20056;-88
2023/11/10 10:25:20;;;;;;;5.72;1.92;;;;;;;12.23;100.00;99742.19;5018288;28;20114;-89
2023/11/10 10:27:46;;;;;;;3.53;1.10;;;;;;;12.26;100.00;99733.66;5018830;28;20580;-89
2023/11/10 10:30:12;;;;;;;1.67;1.00;;;;;;;12.31;100.00;99734.69;5018031;28;20111;-90
2023/11/10 10:32:38;;;;;;;3.33;1.10;;;;;;;12.35;100.00;99743.16;5018638;28;20357;-86
2023/11/10 10:35:04;;;;;;;3.60;1.08;;;;;;;12.37;100.00;99759.13;5017986;28;20091;-87
2023/11/10 10:37:31;;;;;;;7.45;1.45;;;;;;;12.40;100.00;99762.22;5018247;28;20029;-88
2023/11/10 10:40:00;;;;;;;5.40;1.50;;;;;;;12.48;100.00;99772.78;5018392;28;20037;-89
2023/11/10 10:42:28;;;;;;;4.90;1.13;;;;;;;12.56;100.00;99771.72;5035170;28;20037;-89
2023/11/10 10:44:55;;;;;;;7.55;1.50;;;;;;;12.39;100.00;99770.53;5002322;28;20090;-89
2023/11/10 10:47:21;;;;;;;7.45;1.38;;;;;;;12.31;100.00;99777.00;5034587;28;20075;-88
2023/11/10 10:49:48;;;;;;;3.63;1.05;;;;;;;11.93;100.00;99777.66;5018712;28;20038;-88
2023/11/10 10:52:14;;;;;;;3.92;0.93;;;;;;;11.63;100.00;99775.34;4989430;28;20037;-88
2023/11/10 10:54:40;;;;;;;3.65;1.10;;;;;;;11.32;100.00;99781.31;5025891;28;20113;-88
2023/11/10 10:57:07;;;;;;;4.60;1.30;;;;;;;11.07;100.00;99785.63;5040427;28;20048;-88
2023/11/10 10:59:36;;;;;;;2.65;0.95;;;;;;;10.91;100.00;99776.91;5045202;28;20071;-90
2023/11/10 11:02:03;;;;;;;6.32;1.52;;;;;;;11.20;100.00;99793.75;5016509;28;20041;-88
2023/11/10 11:04:30;;;;;;;6.95;1.05;;;;;;;11.46;100.00;99798.34;5001629;28;20037;-86
2023/11/10 11:07:16;;;;;;;7.88;1.63;;;;;;;11.70;100.00;99807.69;5016834;28;20113;-86
2023/11/10 11:10:22;;;;;;;2.67;1.00;;;;;;;11.39;100.00;99810.97;4999949;28;20045;-86
2023/11/10 11:12:54;;;;;;;5.07;1.10;;;;;;;11.04;100.00;99808.38;5015863;28;20072;-86
2023/11/10 11:15:50;;;;;;;6.43;1.30;;;;;;;11.08;100.00;99812.31;5000212;28;20040;-86
2023/11/10 11:18:19;;;;;;;5.53;1.20;;;;;;;11.11;100.00;99809.22;5032771;28;20029;-84
2023/11/10 11:20:46;;;;;;;6.13;1.60;;;;;;;11.10;100.00;99823.72;5032371;28;20033;-84
2023/11/10 11:23:13;;;;;;;3.70;1.30;;;;;;;11.30;100.00;99823.78;5018439;28;20038;-85
2023/11/10 11:25:40;;;;;;;5.65;1.15;;;;;;;11.42;100.00;99822.13;5017894;28;20033;-85
2023/11/10 11:28:06;;;;;;;7.65;1.27;;;;;;;11.59;100.00;99827.13;5033423;28;20031;-84
2023/11/10 11:30:36;;;;;;;4.05;1.20;;;;;;;11.49;100.00;99822.16;5017509;28;20033;-84
2023/11/10 11:33:07;;;;;;;9.38;1.83;;;;;;;11.45;100.00;99832.50;5017213;28;20029;-85